Time;durP1;ratioP1;P1;durP2;ratioP2;P2;SDS_P1;SDS_P2;PMS_P1;PMS_P2;Temp;Humidity;BMP_temperature;BMP_pressure;BME280_temperature;BME280_humidity;BME280_pressure;Samples;Min_cycle;Max_cycle;Signal;HPM_P1;HPM_P2
2021/07/13 00:02:06;;;;;;;3.74;2.74;;;;;;;18.28;91.32;98673.28;2008926;78;21791;-78
2021/07/13 00:05:17;;;;;;;7.38;3.21;;;;;;;18.26;91.39;98670.75;2009610;80;20817;-78
2021/07/13 00:08:19;;;;;;;2.86;2.66;;;;;;;18.27;91.29;98668.97;2008720;80;20709;-78
2021/07/13 00:11:22;;;;;;;3.75;3.01;;;;;;;18.26;91.21;98662.84;2008437;80;20249;-78
2021/07/13 00:14:26;;;;;;;6.61;2.96;;;;;;;18.22;91.14;98665.72;2008654;80;20181;-77
2021/07/13 00:17:28;;;;;;;7.01;3.17;;;;;;;18.19;91.48;98665.84;2006116;80;22287;-77
2021/07/13 00:20:32;;;;;;;5.69;2.66;;;;;;;18.17;91.63;98658.06;2007536;80;20368;-76
2021/07/13 00:23:36;;;;;;;5.01;2.99;;;;;;;18.18;91.61;98656.28;2007136;80;20181;-77
2021/07/13 00:26:38;;;;;;;4.10;3.46;;;;;;;18.17;91.65;98655.41;2007790;80;20574;-76
2021/07/13 00:29:41;;;;;;;4.89;3.16;;;;;;;18.12;91.76;98650.34;2007479;80;20205;-77
2021/07/13 00:32:44;;;;;;;3.55;3.25;;;;;;;18.13;92.08;98651.22;2006773;78;21591;-78
2021/07/13 00:35:47;;;;;;;3.24;2.76;;;;;;;18.15;92.18;98644.13;2000652;81;21029;-77
2021/07/13 00:38:49;;;;;;;3.92;3.01;;;;;;;18.15;92.26;98635.41;2002343;80;20237;-78
2021/07/13 00:41:52;;;;;;;4.72;3.04;;;;;;;18.11;91.96;98626.78;2002703;81;20876;-77
2021/07/13 00:44:55;;;;;;;4.04;3.14;;;;;;;18.08;92.12;98622.53;2001873;81;20293;-77
2021/07/13 00:47:57;;;;;;;3.72;3.25;;;;;;;18.09;92.21;98616.34;1996032;78;20210;-77
2021/07/13 00:51:03;;;;;;;4.57;3.01;;;;;;;18.07;91.95;98623.47;1997264;81;20312;-77
2021/07/13 00:54:11;;;;;;;4.95;3.00;;;;;;;18.03;92.11;98616.66;1997117;81;20174;-77
2021/07/13 00:57:13;;;;;;;4.40;2.58;;;;;;;18.02;92.26;98629.88;1997323;81;20190;-77
2021/07/13 01:00:18;;;;;;;6.68;3.10;;;;;;;17.99;92.37;98638.75;1997599;81;20258;-77
2021/07/13 01:03:21;;;;;;;5.09;2.83;;;;;;;17.96;92.36;98644.16;2002323;81;20178;-77
2021/07/13 01:06:27;;;;;;;3.67;3.25;;;;;;;17.96;92.31;98645.91;2002013;81;20271;-77
2021/07/13 01:09:55;;;;;;;4.36;3.44;;;;;;;17.94;92.34;98647.75;2002121;81;20291;-77
2021/07/13 01:13:13;;;;;;;5.69;2.96;;;;;;;17.90;92.49;98649.66;1999709;81;20170;-78
2021/07/13 01:16:33;;;;;;;3.51;3.00;;;;;;;17.89;92.58;98644.47;1999090;81;20523;-77
2021/07/13 01:20:09;;;;;;;3.58;3.11;;;;;;;17.88;92.90;98641.00;2002301;78;22164;-78
2021/07/13 01:23:27;;;;;;;5.39;3.28;;;;;;;17.90;92.91;98633.06;2002245;81;21032;-78
2021/07/13 01:26:44;;;;;;;5.90;3.24;;;;;;;17.89;92.80;98639.22;2002410;80;20541;-78
2021/07/13 01:29:48;;;;;;;6.35;2.65;;;;;;;17.87;92.85;98635.81;2002628;81;20189;-77
2021/07/13 01:32:56;;;;;;;3.17;2.64;;;;;;;17.86;92.84;98621.00;2001185;78;22991;-78
2021/07/13 01:36:08;;;;;;;4.36;2.91;;;;;;;17.87;92.95;98617.44;2003209;81;20165;-77
2021/07/13 01:39:16;;;;;;;5.68;3.05;;;;;;;17.88;92.98;98625.25;2001962;81;20746;-77
2021/07/13 01:42:20;;;;;;;8.56;3.15;;;;;;;17.88;92.96;98624.38;2002272;81;20197;-78
2021/07/13 01:45:22;;;;;;;5.00;3.08;;;;;;;17.88;93.00;98627.88;2001847;78;22632;-77
2021/07/13 01:48:28;;;;;;;3.88;3.54;;;;;;;17.85;93.23;98625.38;2001886;81;20873;-77
2021/07/13 01:51:32;;;;;;;4.79;3.29;;;;;;;17.82;93.27;98628.16;2001760;81;20205;-77
2021/07/13 01:54:36;;;;;;;4.04;3.10;;;;;;;17.78;93.08;98626.59;2002052;81;20590;-77
2021/07/13 01:57:40;;;;;;;5.32;3.38;;;;;;;17.76;92.99;98620.53;2002657;81;20166;-77
2021/07/13 02:00:44;;;;;;;4.81;3.24;;;;;;;17.73;93.31;98602.31;2000828;78;27209;-77
2021/07/13 02:03:50;;;;;;;5.03;2.80;;;;;;;17.73;93.37;98590.03;2003794;81;20387;-78
2021/07/13 02:06:54;;;;;;;7.59;3.21;;;;;;;17.75;93.51;98590.81;2004293;81;20205;-78
2021/07/13 02:09:59;;;;;;;6.51;3.00;;;;;;;17.72;93.39;98593.59;2003631;81;20612;-77
2021/07/13 02:13:03;;;;;;;3.64;3.34;;;;;;;17.70;93.27;98590.19;2003325;81;20860;-77
2021/07/13 02:16:06;;;;;;;4.63;2.99;;;;;;;17.67;93.43;98590.28;2001833;78;20567;-77
2021/07/13 02:19:10;;;;;;;3.46;3.16;;;;;;;17.67;93.55;98598.16;2004473;81;20619;-77
2021/07/13 02:22:12;;;;;;;4.11;3.10;;;;;;;17.67;93.52;98592.91;2005092;81;20229;-77
2021/07/13 02:25:15;;;;;;;3.40;2.74;;;;;;;17.64;93.67;98593.06;2003786;81;20263;-77
2021/07/13 02:28:32;;;;;;;4.06;2.90;;;;;;;17.63;93.87;98586.09;2004690;81;20216;-77
2021/07/13 02:31:39;;;;;;;3.94;2.97;;;;;;;17.63;93.69;98580.00;2002228;78;23649;-78
2021/07/13 02:34:43;;;;;;;6.29;2.95;;;;;;;17.63;93.61;98591.38;2004896;80;20595;-78
2021/07/13 02:37:47;;;;;;;5.45;2.95;;;;;;;17.58;93.60;98597.72;2005597;81;20778;-78
2021/07/13 02:40:51;;;;;;;4.03;2.97;;;;;;;17.55;93.68;98596.09;2004999;81;20199;-77
2021/07/13 02:43:55;;;;;;;4.03;2.97;;;;;;;17.54;93.90;98599.63;2004350;80;20215;-78
2021/07/13 02:46:58;;;;;;;6.00;3.16;;;;;;;17.53;93.93;98604.03;2003430;80;21299;-78
2021/07/13 02:50:03;;;;;;;3.46;3.05;;;;;;;17.52;93.83;98611.97;2004076;81;20229;-77
2021/07/13 02:53:07;;;;;;;4.22;3.20;;;;;;;17.52;93.75;98604.97;2004843;81;20193;-78
2021/07/13 02:56:11;;;;;;;6.75;3.00;;;;;;;17.50;93.61;98619.09;2003572;81;20928;-77
2021/07/13 02:59:17;;;;;;;3.11;2.91;;;;;;;17.47;93.63;98620.06;2004963;81;20749;-78
2021/07/13 03:02:21;;;;;;;4.51;3.09;;;;;;;17.46;93.81;98620.16;2002259;78;20410;-78
2021/07/13 03:05:26;;;;;;;4.47;2.97;;;;;;;17.46;93.82;98614.91;2004012;81;20711;-78
2021/07/13 03:08:29;;;;;;;7.60;3.51;;;;;;;17.45;93.85;98615.81;2004033;81;20203;-78
2021/07/13 03:11:34;;;;;;;3.29;2.99;;;;;;;17.45;93.89;98610.56;2002405;81;20199;-78
2021/07/13 03:14:41;;;;;;;3.79;3.03;;;;;;;17.46;93.77;98607.03;2004684;80;20205;-79
2021/07/13 03:17:45;;;;;;;4.50;2.54;;;;;;;17.43;93.79;98615.03;2003609;78;21240;-79
2021/07/13 03:20:52;;;;;;;4.46;3.20;;;;;;;17.42;93.88;98606.31;2003814;81;20320;-79
2021/07/13 03:23:59;;;;;;;3.36;3.06;;;;;;;17.39;93.79;98606.44;2003547;81;20185;-78
2021/07/13 03:27:03;;;;;;;3.64;3.01;;;;;;;17.40;93.88;98607.28;2003045;81;20170;-78
2021/07/13 03:30:07;;;;;;;7.00;2.71;;;;;;;17.40;93.90;98613.38;2002899;81;20227;-78
2021/07/13 03:33:11;;;;;;;5.54;2.86;;;;;;;17.39;94.00;98597.69;2001742;79;20854;-78
2021/07/13 03:36:14;;;;;;;4.89;2.99;;;;;;;17.38;93.92;98588.13;2002432;81;20173;-78
2021/07/13 03:39:18;;;;;;;8.11;2.69;;;;;;;17.36;93.98;98567.19;2004382;80;20177;-78
2021/07/13 03:42:22;;;;;;;7.51;2.59;;;;;;;17.39;94.13;98564.44;2003480;81;20209;-78
2021/07/13 03:45:28;;;;;;;5.93;2.79;;;;;;;17.40;94.09;98560.03;2003188;78;20727;-79
2021/07/13 03:48:32;;;;;;;5.75;2.61;;;;;;;17.40;93.91;98547.75;2002700;81;20206;-78
2021/07/13 03:51:41;;;;;;;4.65;2.22;;;;;;;17.41;93.95;98556.50;2003656;81;20591;-78
2021/07/13 03:54:45;;;;;;;3.21;2.24;;;;;;;17.41;94.03;98559.13;2002967;81;20185;-78
2021/07/13 03:57:48;;;;;;;2.64;2.41;;;;;;;17.41;93.88;98559.97;2002793;81;20556;-78
2021/07/13 04:00:51;;;;;;;3.61;2.59;;;;;;;17.39;93.62;98561.81;2002689;81;23370;-78
2021/07/13 04:03:54;;;;;;;2.71;2.51;;;;;;;17.35;93.72;98565.50;2003269;81;20178;-78
2021/07/13 04:06:56;;;;;;;5.07;2.46;;;;;;;17.35;93.70;98575.16;2002643;81;20174;-78
2021/07/13 04:09:59;;;;;;;4.75;2.81;;;;;;;17.33;93.87;98577.00;2003243;81;20221;-77
2021/07/13 04:13:02;;;;;;;4.96;2.67;;;;;;;17.33;93.93;98588.34;2002836;81;20276;-77
2021/07/13 04:16:05;;;;;;;4.05;2.39;;;;;;;17.31;93.90;98597.19;2001099;78;23422;-77
2021/07/13 04:19:08;;;;;;;2.49;2.29;;;;;;;17.31;93.90;98600.69;2003591;81;20871;-77
2021/07/13 04:22:10;;;;;;;5.10;2.35;;;;;;;17.33;93.92;98603.22;2002848;81;20633;-79
2021/07/13 04:25:13;;;;;;;2.80;2.53;;;;;;;17.33;93.78;98600.59;2002719;81;20191;-78
2021/07/13 04:28:17;;;;;;;6.75;2.65;;;;;;;17.30;93.87;98601.59;2002657;81;20308;-78
2021/07/13 04:31:19;;;;;;;4.04;2.06;;;;;;;17.29;93.76;98596.41;2001678;78;20928;-78
2021/07/13 04:34:22;;;;;;;4.28;2.04;;;;;;;17.29;94.02;98592.03;2002585;80;20198;-78
2021/07/13 04:37:25;;;;;;;3.17;2.61;;;;;;;17.31;93.92;98599.81;2003077;81;20749;-78
2021/07/13 04:40:28;;;;;;;5.79;2.42;;;;;;;17.33;93.99;98590.13;2002865;81;20263;-78
2021/07/13 04:43:30;;;;;;;9.34;2.16;;;;;;;17.32;93.92;98585.78;2002919;81;20244;-78
2021/07/13 04:46:33;;;;;;;7.18;2.22;;;;;;;17.32;93.93;98591.88;2002735;78;26068;-78
2021/07/13 04:49:36;;;;;;;5.53;1.98;;;;;;;17.28;93.74;98587.69;2002862;81;20687;-78
2021/07/13 04:52:39;;;;;;;2.44;1.94;;;;;;;17.29;93.66;98578.91;2003117;81;20203;-77
2021/07/13 04:55:41;;;;;;;2.15;1.81;;;;;;;17.30;93.79;98575.38;2002386;80;20655;-77
2021/07/13 04:58:44;;;;;;;2.89;1.75;;;;;;;17.30;93.75;98571.88;2003148;80;20219;-77
2021/07/13 05:01:46;;;;;;;3.60;1.80;;;;;;;17.28;93.77;98576.34;2001456;78;23063;-77
2021/07/13 05:04:50;;;;;;;1.79;1.69;;;;;;;17.30;93.83;98575.38;2002715;81;20185;-77
2021/07/13 05:07:53;;;;;;;2.60;1.90;;;;;;;17.31;93.71;98571.81;2002907;81;20202;-77
2021/07/13 05:10:56;;;;;;;2.97;1.39;;;;;;;17.32;93.57;98581.38;2002945;81;20235;-77
2021/07/13 05:13:58;;;;;;;1.48;1.30;;;;;;;17.31;93.52;98577.06;2001887;81;20219;-76
2021/07/13 05:17:03;;;;;;;3.39;1.56;;;;;;;17.30;93.59;98582.38;2001802;78;22029;-77
2021/07/13 05:20:07;;;;;;;3.89;1.41;;;;;;;17.29;93.73;98565.78;2001513;81;20773;-77
2021/07/13 05:23:10;;;;;;;5.11;1.39;;;;;;;17.31;93.89;98563.94;2002432;81;20298;-77
2021/07/13 05:26:12;;;;;;;4.28;1.71;;;;;;;17.33;93.92;98562.09;2002013;81;20279;-77
2021/07/13 05:29:15;;;;;;;6.40;1.24;;;;;;;17.37;93.72;98563.66;2002095;81;20182;-77
2021/07/13 05:32:18;;;;;;;4.31;1.31;;;;;;;17.35;93.39;98568.13;2002224;78;21351;-78
2021/07/13 05:35:21;;;;;;;3.26;1.17;;;;;;;17.38;93.38;98564.50;2002960;80;20203;-78
2021/07/13 05:38:24;;;;;;;4.68;1.34;;;;;;;17.41;93.35;98556.50;2002728;81;20735;-78
2021/07/13 05:41:26;;;;;;;2.35;1.05;;;;;;;17.46;93.74;98558.00;2003520;81;20267;-79
2021/07/13 05:44:29;;;;;;;1.00;0.90;;;;;;;17.52;93.46;98552.47;2002845;81;20326;-79
2021/07/13 05:47:32;;;;;;;2.69;1.04;;;;;;;17.58;93.36;98545.22;2001595;78;22894;-78
2021/07/13 05:50:35;;;;;;;2.96;1.00;;;;;;;17.61;92.96;98545.94;2002273;81;20491;-79
2021/07/13 05:53:37;;;;;;;1.05;0.90;;;;;;;17.59;92.13;98552.16;2003397;81;20169;-79
2021/07/13 05:56:40;;;;;;;4.36;0.91;;;;;;;17.58;92.00;98550.47;2002967;81;20193;-79
2021/07/13 05:59:43;;;;;;;2.83;0.80;;;;;;;17.52;91.88;98552.47;2003589;81;20248;-80
2021/07/13 06:02:45;;;;;;;2.24;0.76;;;;;;;17.53;92.06;98553.31;2003689;80;22734;-79
2021/07/13 06:05:48;;;;;;;3.35;0.84;;;;;;;17.55;91.88;98555.88;2006960;80;20709;-78
2021/07/13 06:08:50;;;;;;;0.96;0.74;;;;;;;17.55;91.72;98569.00;2002974;81;20181;-79
2021/07/13 06:11:57;;;;;;;1.61;0.82;;;;;;;17.52;91.70;98567.38;2003302;81;20186;-79
2021/07/13 06:15:00;;;;;;;1.13;0.70;;;;;;;17.51;91.52;98568.28;2003040;81;20219;-78
2021/07/13 06:18:03;;;;;;;0.80;0.74;;;;;;;17.48;91.75;98569.28;1993009;81;21379;-78
2021/07/13 06:21:08;;;;;;;1.41;0.80;;;;;;;17.50;92.04;98579.72;1992276;81;20273;-79
2021/07/13 06:24:12;;;;;;;0.76;0.60;;;;;;;17.50;91.88;98582.34;1993639;81;20669;-80
2021/07/13 06:27:15;;;;;;;1.54;0.80;;;;;;;17.45;91.61;98587.81;1994522;81;20187;-79
2021/07/13 06:30:18;;;;;;;1.61;0.80;;;;;;;17.44;91.81;98588.72;1993021;79;23929;-78
2021/07/13 06:33:21;;;;;;;1.14;1.02;;;;;;;17.41;91.95;98582.72;1994969;81;20250;-80
2021/07/13 06:36:23;;;;;;;3.40;0.86;;;;;;;17.41;92.36;98596.72;1997963;81;20194;-79
2021/07/13 06:39:26;;;;;;;1.41;0.69;;;;;;;17.41;92.42;98596.72;1998023;81;20196;-79
2021/07/13 06:42:28;;;;;;;0.88;0.80;;;;;;;17.44;92.40;98595.75;1997933;81;20171;-78
2021/07/13 06:45:31;;;;;;;0.66;0.66;;;;;;;17.40;92.20;98597.63;1999088;77;23906;-78
2021/07/13 06:48:34;;;;;;;1.15;0.70;;;;;;;17.40;92.25;98594.16;2008356;80;20235;-77
2021/07/13 06:51:37;;;;;;;1.54;0.74;;;;;;;17.40;92.14;98599.41;2008031;80;20535;-78
2021/07/13 06:54:39;;;;;;;2.86;0.85;;;;;;;17.38;92.07;98602.09;2007890;80;20197;-78
2021/07/13 06:57:42;;;;;;;1.64;0.79;;;;;;;17.38;91.97;98598.63;2007646;80;20209;-79
2021/07/13 07:00:45;;;;;;;0.80;0.73;;;;;;;17.36;92.14;98603.94;2005173;78;35630;-79
2021/07/13 07:03:47;;;;;;;6.14;0.68;;;;;;;17.33;92.22;98604.09;2003217;81;20672;-76
2021/07/13 07:06:50;;;;;;;2.78;0.80;;;;;;;17.33;92.34;98611.97;2003194;81;20198;-76
2021/07/13 07:09:53;;;;;;;1.01;0.70;;;;;;;17.32;92.43;98607.63;2003279;81;20162;-77
2021/07/13 07:12:55;;;;;;;3.13;0.70;;;;;;;17.30;92.45;98608.63;2002413;81;20196;-76
2021/07/13 07:15:58;;;;;;;0.82;0.80;;;;;;;17.32;92.56;98614.66;2001798;78;21739;-77
2021/07/13 07:19:00;;;;;;;3.19;0.80;;;;;;;17.29;92.69;98620.88;2003480;81;20173;-77
2021/07/13 07:22:04;;;;;;;0.79;0.66;;;;;;;17.31;92.71;98619.03;2003505;81;20173;-77
2021/07/13 07:25:09;;;;;;;1.17;0.66;;;;;;;17.30;92.62;98627.84;2002495;81;20711;-77
2021/07/13 07:28:11;;;;;;;1.98;0.70;;;;;;;17.30;92.60;98614.72;2002286;81;20204;-78
2021/07/13 07:31:19;;;;;;;0.96;0.60;;;;;;;17.32;92.54;98619.91;2004516;78;21063;-77
2021/07/13 07:34:22;;;;;;;5.37;0.82;;;;;;;17.31;92.48;98613.81;2005569;80;20257;-76
2021/07/13 07:37:25;;;;;;;3.03;0.57;;;;;;;17.30;92.58;98612.09;2003185;81;20169;-77
2021/07/13 07:40:28;;;;;;;2.14;0.60;;;;;;;17.28;92.70;98619.19;2003761;81;21441;-76
2021/07/13 07:43:30;;;;;;;1.91;0.70;;;;;;;17.26;92.57;98621.03;2002480;81;20185;-77
2021/07/13 07:46:33;;;;;;;2.20;0.50;;;;;;;17.25;92.63;98623.72;2001652;78;20755;-78
2021/07/13 07:49:36;;;;;;;1.29;0.50;;;;;;;17.24;92.73;98630.75;2003297;81;20297;-80
2021/07/13 07:52:39;;;;;;;1.27;0.46;;;;;;;17.26;92.78;98620.19;2007713;81;20161;-81
2021/07/13 07:55:43;;;;;;;1.49;0.60;;;;;;;17.23;92.94;98618.50;2009937;81;20205;-82
2021/07/13 07:58:46;;;;;;;0.63;0.41;;;;;;;17.22;92.94;98612.41;2014332;81;20226;-81
2021/07/13 08:01:48;;;;;;;1.50;0.34;;;;;;;17.23;92.92;98613.25;2005587;78;21622;-79
2021/07/13 08:04:51;;;;;;;1.98;0.40;;;;;;;17.22;92.76;98609.78;2003140;81;20216;-79
2021/07/13 08:07:54;;;;;;;0.57;0.40;;;;;;;17.22;92.76;98601.91;2004675;81;20256;-80
2021/07/13 08:10:56;;;;;;;0.49;0.30;;;;;;;17.25;92.66;98602.72;2007131;81;20162;-81
2021/07/13 08:14:00;;;;;;;0.22;0.20;;;;;;;17.21;92.39;98613.34;2003715;81;20812;-79
2021/07/13 08:17:03;;;;;;;0.41;0.24;;;;;;;17.16;91.95;98631.06;2001134;78;55735;-79
2021/07/13 08:20:09;;;;;;;0.55;0.20;;;;;;;17.07;91.67;98628.84;2003024;81;20173;-79
2021/07/13 08:23:12;;;;;;;0.45;0.21;;;;;;;17.01;91.67;98630.84;2002445;81;20193;-79
2021/07/13 08:26:15;;;;;;;0.73;0.30;;;;;;;17.00;91.83;98631.78;2001857;81;20199;-79
2021/07/13 08:29:17;;;;;;;0.50;0.17;;;;;;;17.00;91.51;98635.25;2003078;81;20182;-80
2021/07/13 08:32:20;;;;;;;1.29;0.32;;;;;;;16.98;90.97;98650.22;2003798;79;27108;-79
2021/07/13 08:35:23;;;;;;;0.66;0.10;;;;;;;16.92;90.61;98640.84;2002787;80;20342;-80
2021/07/13 08:38:26;;;;;;;0.49;0.19;;;;;;;16.90;90.46;98641.81;2002931;81;20713;-79
2021/07/13 08:41:30;;;;;;;2.91;0.29;;;;;;;16.86;90.12;98643.69;2001974;81;20753;-80
2021/07/13 08:44:34;;;;;;;0.20;0.10;;;;;;;16.80;90.10;98638.72;2012411;81;20253;-79
2021/07/13 08:47:38;;;;;;;0.21;0.20;;;;;;;16.76;89.90;98626.66;2013824;78;21453;-79
2021/07/13 08:50:40;;;;;;;2.25;0.22;;;;;;;16.75;90.00;98609.22;2011114;81;20134;-84
2021/07/13 08:53:43;;;;;;;0.46;0.24;;;;;;;16.76;90.07;98613.56;2019237;81;20184;-82
2021/07/13 08:56:46;;;;;;;2.36;0.68;;;;;;;16.88;90.48;98620.06;2010035;81;20676;-78
2021/07/13 08:59:49;;;;;;;0.19;0.14;;;;;;;16.95;90.21;98612.78;2005911;81;20729;-77
2021/07/13 09:03:19;;;;;;;1.33;0.21;;;;;;;16.92;89.43;98626.88;2001304;79;22533;-77
2021/07/13 09:06:25;;;;;;;0.70;0.15;;;;;;;17.01;89.94;98631.72;2002965;81;20722;-76
2021/07/13 09:09:30;;;;;;;0.20;0.20;;;;;;;17.11;90.59;98634.81;2001571;81;20190;-76
2021/07/13 09:12:33;;;;;;;4.44;0.20;;;;;;;17.15;90.43;98634.59;2000102;81;21167;-75
2021/07/13 09:15:37;;;;;;;0.94;0.20;;;;;;;17.14;89.29;98632.91;1999721;78;20215;-75
2021/07/13 09:18:50;;;;;;;0.52;0.13;;;;;;;17.16;88.87;98632.84;2000035;81;20169;-75
2021/07/13 09:21:56;;;;;;;0.46;0.20;;;;;;;17.16;88.34;98628.44;1998179;81;20704;-75
2021/07/13 09:24:59;;;;;;;1.66;0.22;;;;;;;17.19;88.21;98623.03;1999810;81;20189;-75
2021/07/13 09:28:16;;;;;;;0.60;0.24;;;;;;;17.19;88.13;98632.69;1999299;81;20257;-75
2021/07/13 09:31:23;;;;;;;0.20;0.20;;;;;;;17.28;88.39;98627.06;1998949;78;22359;-75
2021/07/13 09:34:26;;;;;;;0.31;0.20;;;;;;;17.23;87.42;98626.38;1999478;80;20708;-75
2021/07/13 09:37:31;;;;;;;0.76;0.20;;;;;;;17.24;87.78;98636.00;2001408;81;20170;-75
2021/07/13 09:40:36;;;;;;;2.74;0.30;;;;;;;17.28;87.83;98634.09;2002488;81;20280;-75
2021/07/13 09:43:40;;;;;;;0.30;0.20;;;;;;;17.22;87.48;98643.91;2002757;81;20710;-74
2021/07/13 09:46:46;;;;;;;0.13;0.13;;;;;;;17.09;87.10;98640.13;2002314;78;20680;-74
2021/07/13 09:49:49;;;;;;;1.02;0.30;;;;;;;17.04;87.78;98649.09;2002644;81;20578;-75
2021/07/13 09:53:02;;;;;;;1.56;0.30;;;;;;;17.07;88.29;98649.84;2000668;81;20349;-74
2021/07/13 09:56:05;;;;;;;0.65;0.21;;;;;;;17.14;88.75;98648.63;2000645;80;20215;-75
2021/07/13 09:59:08;;;;;;;1.34;0.20;;;;;;;17.19;88.61;98654.53;2001911;81;20372;-74
2021/07/13 10:02:11;;;;;;;0.28;0.20;;;;;;;17.25;88.39;98649.97;2002066;78;20735;-75
2021/07/13 10:05:16;;;;;;;0.40;0.20;;;;;;;17.32;88.21;98644.38;2002316;81;20174;-74
2021/07/13 10:08:20;;;;;;;0.36;0.29;;;;;;;17.35;87.37;98652.09;2002622;81;21090;-74
2021/07/13 10:11:23;;;;;;;1.58;0.11;;;;;;;17.43;87.54;98649.16;2002533;81;20178;-73
2021/07/13 10:14:27;;;;;;;0.20;0.20;;;;;;;17.43;87.43;98649.16;2002455;81;20162;-74
2021/07/13 10:17:31;;;;;;;0.21;0.20;;;;;;;17.40;86.70;98658.00;2001848;78;21444;-74
2021/07/13 10:20:36;;;;;;;0.11;0.11;;;;;;;17.43;87.01;98662.28;2003019;81;20197;-74
2021/07/13 10:23:43;;;;;;;0.20;0.20;;;;;;;17.45;87.04;98661.28;2000514;81;20225;-74
2021/07/13 10:26:53;;;;;;;0.10;0.10;;;;;;;17.47;86.86;98662.06;2000091;81;20273;-73
2021/07/13 10:29:58;;;;;;;0.21;0.20;;;;;;;17.39;86.64;98669.41;2001673;81;21008;-73
2021/07/13 10:33:01;;;;;;;0.25;0.19;;;;;;;17.41;86.96;98669.34;1991770;78;21246;-73
2021/07/13 10:36:27;;;;;;;0.10;0.10;;;;;;;17.40;87.29;98672.88;1992637;81;20201;-74
2021/07/13 10:39:33;;;;;;;0.34;0.20;;;;;;;17.36;87.18;98679.19;1992612;81;20725;-74
2021/07/13 10:42:43;;;;;;;0.73;0.10;;;;;;;17.37;87.43;98681.75;1991170;81;20205;-74
2021/07/13 10:45:47;;;;;;;0.10;0.10;;;;;;;17.34;87.55;98683.66;1991467;78;21875;-73
2021/07/13 10:49:17;;;;;;;0.93;0.10;;;;;;;17.26;87.65;98681.38;1999734;81;20182;-73
2021/07/13 10:52:54;;;;;;;0.10;0.10;;;;;;;17.21;88.29;98683.31;2001027;81;20194;-74
2021/07/13 10:55:58;;;;;;;2.47;0.20;;;;;;;17.25;88.59;98691.94;2002439;81;20249;-74
2021/07/13 10:59:20;;;;;;;0.11;0.10;;;;;;;17.16;88.50;98691.41;2002118;81;20185;-74
2021/07/13 11:02:22;;;;;;;0.66;0.20;;;;;;;17.16;89.13;98694.03;2000204;78;23267;-73
2021/07/13 11:05:43;;;;;;;0.15;0.15;;;;;;;17.13;89.44;98698.56;2000825;80;20270;-73
2021/07/13 11:09:04;;;;;;;1.71;0.30;;;;;;;17.13;89.86;98707.28;2000410;81;20197;-73
2021/07/13 11:12:08;;;;;;;0.15;0.11;;;;;;;17.12;89.79;98699.47;2001031;81;20543;-74
2021/07/13 11:15:13;;;;;;;0.64;0.60;;;;;;;17.13;89.81;98703.78;2002715;81;20656;-75
2021/07/13 11:18:28;;;;;;;0.68;0.20;;;;;;;17.12;90.02;98712.59;2001959;78;23977;-75
2021/07/13 11:21:35;;;;;;;0.50;0.20;;;;;;;17.08;90.09;98706.63;2001347;81;20381;-76
2021/07/13 11:24:38;;;;;;;0.30;0.20;;;;;;;17.14;90.30;98700.25;2003134;81;20898;-75
2021/07/13 11:27:40;;;;;;;1.64;0.14;;;;;;;17.14;90.29;98697.63;2002162;81;20170;-75
2021/07/13 11:30:49;;;;;;;1.54;0.25;;;;;;;17.14;90.20;98692.38;2000885;81;21416;-75
2021/07/13 11:33:57;;;;;;;0.54;0.12;;;;;;;17.14;90.11;98700.25;2002556;80;20641;-74
2021/07/13 11:37:00;;;;;;;1.48;0.20;;;;;;;17.12;90.06;98702.09;2003331;81;20174;-75
2021/07/13 11:40:07;;;;;;;2.70;0.28;;;;;;;17.06;89.80;98704.97;2002271;81;20170;-76
2021/07/13 11:43:09;;;;;;;0.54;0.20;;;;;;;17.05;89.88;98692.75;2001774;81;20655;-76
2021/07/13 11:46:15;;;;;;;0.40;0.20;;;;;;;17.10;90.35;98696.06;2001092;78;20251;-75
2021/07/13 11:49:26;;;;;;;0.29;0.20;;;;;;;17.21;90.97;98701.69;2002295;81;20973;-76
2021/07/13 11:52:29;;;;;;;0.69;0.30;;;;;;;17.32;90.63;98703.88;2002355;81;20258;-76
2021/07/13 11:55:31;;;;;;;0.56;0.20;;;;;;;17.25;90.01;98708.53;2002163;81;20212;-76
2021/07/13 11:58:35;;;;;;;0.75;0.25;;;;;;;17.22;89.79;98700.78;2003933;80;20230;-76
2021/07/13 12:01:38;;;;;;;4.00;0.21;;;;;;;17.11;89.68;98701.25;2000504;78;20545;-75
2021/07/13 12:04:44;;;;;;;0.43;0.30;;;;;;;17.09;90.24;98697.84;2001691;81;20329;-75
2021/07/13 12:07:47;;;;;;;0.88;0.30;;;;;;;17.21;90.94;98699.06;2002761;80;20177;-76
2021/07/13 12:10:51;;;;;;;1.49;0.30;;;;;;;17.37;90.89;98701.91;2002087;81;20506;-76
2021/07/13 12:13:59;;;;;;;0.75;0.20;;;;;;;17.51;90.51;98705.63;2002750;81;20680;-75
2021/07/13 12:17:03;;;;;;;0.65;0.20;;;;;;;17.61;90.13;98708.72;2000991;81;26194;-76
2021/07/13 12:20:08;;;;;;;0.20;0.20;;;;;;;17.73;89.45;98694.22;2001220;81;20203;-75
2021/07/13 12:23:10;;;;;;;1.31;0.20;;;;;;;17.84;89.62;98701.63;2002388;80;20226;-74
2021/07/13 12:26:20;;;;;;;0.20;0.20;;;;;;;18.02;89.77;98706.91;2002624;81;20752;-74
2021/07/13 12:29:24;;;;;;;0.95;0.20;;;;;;;18.12;89.14;98702.91;2002479;81;20348;-76
2021/07/13 12:32:30;;;;;;;0.52;0.16;;;;;;;18.21;88.49;98700.78;2001453;79;21137;-76
2021/07/13 12:35:34;;;;;;;0.39;0.20;;;;;;;18.29;87.93;98694.25;2003234;80;20178;-76
2021/07/13 12:38:37;;;;;;;0.21;0.20;;;;;;;18.31;87.52;98713.44;2002060;81;20178;-75
2021/07/13 12:41:40;;;;;;;0.91;0.20;;;;;;;18.30;86.94;98714.34;2002014;81;20251;-75
2021/07/13 12:44:49;;;;;;;0.94;0.10;;;;;;;18.15;86.37;98716.84;2002681;81;20699;-75
2021/07/13 12:47:54;;;;;;;0.45;0.20;;;;;;;18.05;86.64;98711.16;2001653;79;32130;-76
2021/07/13 12:50:57;;;;;;;2.46;0.20;;;;;;;18.02;87.06;98703.41;2002799;81;20191;-76
2021/07/13 12:54:07;;;;;;;0.10;0.10;;;;;;;18.00;87.71;98711.38;2003251;81;20219;-75
2021/07/13 12:57:33;;;;;;;1.24;0.20;;;;;;;18.02;88.26;98714.78;2002195;81;20178;-74
2021/07/13 13:00:37;;;;;;;0.20;0.20;;;;;;;17.95;88.00;98715.09;2000029;79;21807;-74
2021/07/13 13:03:43;;;;;;;0.61;0.30;;;;;;;17.89;88.20;98732.00;2000431;81;20678;-74
2021/07/13 13:06:45;;;;;;;0.21;0.20;;;;;;;17.78;87.74;98732.50;2001460;81;20193;-75
2021/07/13 13:09:49;;;;;;;0.29;0.20;;;;;;;17.64;87.20;98734.00;2002191;81;20182;-74
2021/07/13 13:12:52;;;;;;;1.36;0.20;;;;;;;17.50;87.23;98738.06;2001506;81;20211;-75
2021/07/13 13:15:56;;;;;;;1.96;0.25;;;;;;;17.50;88.05;98737.19;2001500;78;21926;-75
2021/07/13 13:18:59;;;;;;;0.51;0.22;;;;;;;17.53;88.46;98735.28;2002095;81;20199;-74
2021/07/13 13:22:02;;;;;;;0.77;0.20;;;;;;;17.61;88.87;98737.59;2001681;81;21107;-74
2021/07/13 13:25:05;;;;;;;0.29;0.21;;;;;;;17.60;88.37;98745.56;1999460;81;20600;-73
2021/07/13 13:28:09;;;;;;;1.05;0.30;;;;;;;17.53;87.45;98752.81;1999452;81;20255;-75
2021/07/13 13:31:13;;;;;;;0.55;0.29;;;;;;;17.45;87.78;98752.31;1998744;78;20907;-75
2021/07/13 13:34:17;;;;;;;3.74;0.30;;;;;;;17.46;88.64;98739.13;1999383;80;20196;-76
2021/07/13 13:37:22;;;;;;;0.54;0.34;;;;;;;17.51;88.27;98734.50;1999375;81;20786;-74
2021/07/13 13:40:29;;;;;;;0.34;0.30;;;;;;;17.67;88.47;98732.06;2001184;80;20182;-74
2021/07/13 13:43:32;;;;;;;0.20;0.20;;;;;;;17.72;87.42;98730.13;1999707;81;20235;-74
2021/07/13 13:46:34;;;;;;;1.63;0.30;;;;;;;17.90;87.96;98717.09;1998115;78;96417;-74
2021/07/13 13:49:37;;;;;;;0.84;0.30;;;;;;;18.04;87.51;98730.47;2001655;81;20638;-74
2021/07/13 13:52:40;;;;;;;0.69;0.30;;;;;;;18.14;87.30;98730.91;2001079;81;20620;-74
2021/07/13 13:55:43;;;;;;;0.81;0.30;;;;;;;18.17;87.19;98736.88;2001076;81;20233;-74
2021/07/13 13:58:45;;;;;;;2.06;0.30;;;;;;;18.07;86.44;98723.28;2001495;81;20186;-75
2021/07/13 14:01:48;;;;;;;1.96;0.32;;;;;;;17.95;86.02;98715.09;2000570;78;21272;-74
2021/07/13 14:04:51;;;;;;;0.30;0.30;;;;;;;17.88;86.34;98724.19;2001487;81;20219;-74
2021/07/13 14:07:54;;;;;;;1.09;0.35;;;;;;;17.85;87.13;98719.94;2001064;81;20641;-75
2021/07/13 14:10:57;;;;;;;0.43;0.30;;;;;;;17.68;86.13;98715.44;2001639;81;20186;-75
2021/07/13 14:14:03;;;;;;;0.91;0.31;;;;;;;17.67;86.92;98703.19;2001087;81;20177;-75
2021/07/13 14:17:06;;;;;;;3.63;0.30;;;;;;;17.65;87.41;98709.44;1999304;78;23890;-72
2021/07/13 14:20:12;;;;;;;0.30;0.30;;;;;;;17.69;87.26;98706.63;2000974;81;20282;-77
2021/07/13 14:23:14;;;;;;;0.70;0.32;;;;;;;17.69;86.72;98708.41;2001561;81;20246;-73
2021/07/13 14:26:17;;;;;;;2.26;0.34;;;;;;;17.69;87.25;98703.16;2001637;81;20205;-73
2021/07/13 14:29:20;;;;;;;2.14;0.38;;;;;;;17.62;87.11;98707.81;1998801;81;20239;-74
2021/07/13 14:32:23;;;;;;;0.40;0.40;;;;;;;17.60;87.61;98706.16;1999516;79;20325;-73